This is the latest recevied weather packets stored in our database for station/object KD6VEX-1. If no packets are shown the sender has not sent any weather packets the latest 10 day(s).
| Time | Temp. | Humidity | Pressure | Rain* | Wind** | Luminosity | Snow |
|---|---|---|---|---|---|---|---|
| 1777660700 | 17.78° C | 73% | 1015.2 hPa | 0 mm | - | - | - |
| 1777660154 | 16.11° C | 76% | 1015.4 hPa | 0 mm | - | - | - |
| 1777660100 | 16.67° C | 76% | 1015.3 hPa | 0 mm | - | - | - |
| 1777660066 | 16.11° C | 76% | 1015.4 hPa | 0 mm | - | - | - |
| 1777659801 | 16.11° C | 76% | 1015.4 hPa | 0 mm | - | - | - |
| 1777659500 | 16.11° C | 77% | 1015.5 hPa | 0 mm | - | - | - |
| 1777659201 | 16.11° C | 77% | 1015.5 hPa | 0 mm | - | - | - |
| 1777658900 | 15.56° C | 79% | 1015.5 hPa | 0 mm | - | - | - |
| 1777657101 | 14.44° C | 82% | 1015.6 hPa | 0 mm | - | - | - |
| 1777656200 | 13.89° C | 83% | 1015.7 hPa | 0 mm | - | - | - |
| 1777655900 | 13.89° C | 84% | 1015.7 hPa | 0 mm | - | - | - |
| 1777655600 | 13.89° C | 84% | 1015.7 hPa | 0 mm | - | - | - |
| 1777655000 | 13.33° C | 84% | 1015.8 hPa | 0 mm | - | - | - |
| 1777654700 | 13.33° C | 85% | 1015.7 hPa | 0 mm | - | - | - |
| 1777654400 | 13.33° C | 85% | 1015.7 hPa | 0 mm | - | - | - |
| 1777653500 | 13.33° C | 86% | 1015.7 hPa | 0 mm | - | - | - |
| 1777653200 | 12.78° C | 87% | 1015.6 hPa | 0 mm | - | - | - |
| 1777652900 | 12.78° C | 87% | 1015.5 hPa | 0 mm | - | - | - |
| 1777652600 | 12.78° C | 88% | 1015.5 hPa | 0 mm | - | - | - |
| 1777652300 | 12.22° C | 88% | 1015.5 hPa | 0 mm | - | - | - |
| 1777652000 | 12.78° C | 88% | 1015.4 hPa | 0 mm | - | - | - |
| 1777651700 | 12.78° C | 88% | 1015.4 hPa | 0 mm | - | - | - |
| 1777651400 | 12.22° C | 88% | 1015.5 hPa | 0 mm | - | - | - |
| 1777651100 | 12.22° C | 88% | 1015.5 hPa | 0 mm | - | - | - |
| 1777650800 | 12.22° C | 89% | 1015.5 hPa | 0 mm | - | - | - |
* Rain latest hour (hover to see other rain measurements)
** Current wind speed in m/s (hover to see current wind gust speed)